Blackstone River @ Woonsocket, Ri

Blackstone River at Woonsocket
 Total Drainage Area: 416 sq. miles 
 Drainage Area Controlled by Corps Dams: 28 sq. miles (7%) 
 Warning Flow/Stage: 4,400 cfs / 7.0 feet 
 Flood Flow/Stage: 6,670 cfs / 9.0 feet 
Date Time
(Eastern)
Stage
(ft)
Flow
(cfs)
CSM
(cfs / sq. mi.)
Jan-31 01:30 pm 4.24 1,793 4.3
Jan-31 12:30 pm 4.28 1,824 4.4
Jan-31 11:30 am 4.32 1,855 4.5
Jan-31 10:30 am 4.30 1,840 4.4
Jan-31 09:30 am 4.26 1,808 4.4
Jan-31 08:30 am 4.28 1,824 4.4
Jan-31 07:30 am 4.28 1,824 4.4
Jan-31 06:30 am 4.29 1,832 4.4
Jan-31 05:30 am 4.30 1,840 4.4
Jan-31 04:30 am 4.30 1,840 4.4
Jan-31 03:30 am 4.31 1,847 4.4
Jan-31 02:30 am 4.31 1,847 4.4
Jan-31 01:30 am 4.32 1,855 4.5
Jan-31 12:30 am 4.33 1,863 4.5
Jan-30 11:30 pm 4.33 1,863 4.5
Jan-30 10:30 pm 4.33 1,863 4.5
Jan-30 09:30 pm 4.33 1,863 4.5
Jan-30 08:30 pm 4.33 1,863 4.5
Jan-30 07:30 pm 4.35 1,879 4.5
Jan-30 06:30 pm 4.35 1,879 4.5
Jan-30 05:30 pm 4.37 1,895 4.6
Jan-30 04:30 pm 4.39 1,911 4.6
Jan-30 03:30 pm 4.41 1,927 4.6
Jan-30 02:30 pm 4.44 1,951 4.7
Jan-30 01:30 pm 4.47 1,976 4.8
Report Generated January 31, 2023 02:41 pm